Time;durP1;ratioP1;P1;durP2;ratioP2;P2;SDS_P1;SDS_P2;PMS_P1;PMS_P2;Temp;Humidity;BMP_temperature;BMP_pressure;BME280_temperature;BME280_humidity;BME280_pressure;Samples;Min_cycle;Max_cycle;Signal;HPM_P1;HPM_P2
2024/01/13 00:03:32;;;;;;;17.25;8.65;;;;;;;;;;10435762;28;20089;-77
2024/01/13 00:08:35;;;;;;;16.83;8.52;;;;;;;;;;10452357;28;20140;-76
2024/01/13 00:13:40;;;;;;;15.15;8.75;;;;;;;;;;10441158;28;20045;-77
2024/01/13 00:18:43;;;;;;;15.02;7.63;;;;;;;;;;10433089;28;20549;-77
2024/01/13 00:23:46;;;;;;;17.50;8.88;;;;;;;;;;10426826;28;20037;-77
2024/01/13 00:28:51;;;;;;;14.13;7.63;;;;;;;;;;10457711;28;20044;-77
2024/01/13 00:33:54;;;;;;;15.10;7.50;;;;;;;;;;10448588;28;20037;-77
2024/01/13 00:38:58;;;;;;;19.88;9.18;;;;;;;;;;10440985;28;20053;-77
2024/01/13 00:44:02;;;;;;;17.33;8.98;;;;;;;;;;10458164;28;20127;-77
2024/01/13 00:49:06;;;;;;;16.50;8.25;;;;;;;;;;10433942;28;20037;-76
2024/01/13 00:54:10;;;;;;;18.50;9.30;;;;;;;;;;10453773;28;20033;-77
2024/01/13 00:59:16;;;;;;;18.67;9.65;;;;;;;;;;10455902;28;20441;-77
2024/01/13 01:04:19;;;;;;;17.27;8.00;;;;;;;;;;10435957;28;20040;-76
2024/01/13 01:09:22;;;;;;;19.17;9.25;;;;;;;;;;10449867;28;20061;-76
2024/01/13 01:14:27;;;;;;;15.10;8.13;;;;;;;;;;10453566;28;20565;-77
2024/01/13 01:19:30;;;;;;;19.77;9.02;;;;;;;;;;10437739;28;20052;-76
2024/01/13 01:24:33;;;;;;;21.27;10.23;;;;;;;;;;10451297;28;20048;-76
2024/01/13 01:29:38;;;;;;;19.42;8.77;;;;;;;;;;10448262;28;20484;-77
2024/01/13 01:34:41;;;;;;;17.02;8.65;;;;;;;;;;10461193;28;20049;-77
2024/01/13 01:39:45;;;;;;;16.90;8.80;;;;;;;;;;10455481;28;20033;-77
2024/01/13 01:44:50;;;;;;;15.82;8.10;;;;;;;;;;10455050;28;20047;-77
2024/01/13 01:49:53;;;;;;;15.57;7.93;;;;;;;;;;10455598;28;20044;-77
2024/01/13 01:54:56;;;;;;;17.17;8.38;;;;;;;;;;10451925;28;20494;-76
2024/01/13 02:00:01;;;;;;;15.32;8.18;;;;;;;;;;10431620;28;20045;-77
2024/01/13 02:05:14;;;;;;;16.30;8.13;;;;;;;;;;10466119;28;20044;-77
2024/01/13 02:10:18;;;;;;;17.40;8.70;;;;;;;;;;10432580;28;20044;-77
2024/01/13 02:15:22;;;;;;;16.17;8.63;;;;;;;;;;10468546;28;20048;-77
2024/01/13 02:20:26;;;;;;;19.60;8.95;;;;;;;;;;10446536;28;20135;-77
2024/01/13 02:25:30;;;;;;;17.83;8.98;;;;;;;;;;10465484;28;20048;-76
2024/01/13 02:30:34;;;;;;;18.08;8.73;;;;;;;;;;10456295;28;20043;-77
2024/01/13 02:35:37;;;;;;;14.27;7.72;;;;;;;;;;10460829;28;20044;-77
2024/01/13 02:40:42;;;;;;;15.57;7.50;;;;;;;;;;10454119;28;20043;-76
2024/01/13 02:45:45;;;;;;;13.68;7.60;;;;;;;;;;10460553;28;20041;-77
2024/01/13 02:51:00;;;;;;;14.50;7.68;;;;;;;;;;10442736;28;20047;-77
2024/01/13 02:56:05;;;;;;;15.20;7.85;;;;;;;;;;10466708;28;20048;-77
2024/01/13 03:01:08;;;;;;;14.57;7.10;;;;;;;;;;10460950;28;20064;-76
2024/01/13 03:06:12;;;;;;;12.77;6.95;;;;;;;;;;10453059;28;20134;-77
2024/01/13 03:11:17;;;;;;;11.50;5.78;;;;;;;;;;10451048;28;20513;-77
2024/01/13 03:16:20;;;;;;;13.00;6.80;;;;;;;;;;10464929;28;20094;-77
2024/01/13 03:21:24;;;;;;;12.27;7.15;;;;;;;;;;10465774;28;20049;-76
2024/01/13 03:26:29;;;;;;;13.75;7.13;;;;;;;;;;10437838;28;20550;-76
2024/01/13 03:31:32;;;;;;;13.40;6.70;;;;;;;;;;10459532;28;20052;-76
2024/01/13 03:36:35;;;;;;;12.55;6.28;;;;;;;;;;10455792;28;20098;-77
2024/01/13 03:41:40;;;;;;;14.57;7.18;;;;;;;;;;10456212;28;20637;-77
2024/01/13 03:46:43;;;;;;;13.38;7.57;;;;;;;;;;10463320;28;20045;-77
2024/01/13 03:51:46;;;;;;;13.98;7.60;;;;;;;;;;10456006;28;20058;-76
2024/01/13 03:56:52;;;;;;;11.98;6.85;;;;;;;;;;10467809;28;20076;-77
2024/01/13 04:01:55;;;;;;;13.82;6.80;;;;;;;;;;10474601;28;20137;-78
2024/01/13 04:06:58;;;;;;;12.02;6.72;;;;;;;;;;10464977;28;20044;-77
2024/01/13 04:12:03;;;;;;;13.18;7.20;;;;;;;;;;10447113;28;20049;-77
2024/01/13 04:17:06;;;;;;;15.32;7.55;;;;;;;;;;10463046;28;20429;-77
2024/01/13 04:22:10;;;;;;;11.48;6.68;;;;;;;;;;10457420;28;20059;-77
2024/01/13 04:27:15;;;;;;;10.88;6.43;;;;;;;;;;10456764;28;20063;-77
2024/01/13 04:32:18;;;;;;;15.10;7.13;;;;;;;;;;10455441;28;20296;-77
2024/01/13 04:37:21;;;;;;;16.02;7.75;;;;;;;;;;10447995;28;20127;-77
2024/01/13 04:42:26;;;;;;;16.42;8.15;;;;;;;;;;10451004;28;20044;-76
2024/01/13 04:47:29;;;;;;;14.70;7.57;;;;;;;;;;10457062;28;20090;-77
2024/01/13 04:52:33;;;;;;;13.45;7.35;;;;;;;;;;10449903;28;20040;-77
2024/01/13 04:57:38;;;;;;;12.18;6.38;;;;;;;;;;10451942;28;20411;-77
2024/01/13 05:02:41;;;;;;;10.93;5.72;;;;;;;;;;10458408;28;20130;-77
2024/01/13 05:07:45;;;;;;;11.35;6.20;;;;;;;;;;10458545;28;20076;-76
2024/01/13 05:12:50;;;;;;;10.65;5.97;;;;;;;;;;10440095;28;20048;-77
2024/01/13 05:17:53;;;;;;;12.52;6.22;;;;;;;;;;10460991;28;20055;-76
2024/01/13 05:22:57;;;;;;;7.85;4.80;;;;;;;;;;10452171;28;20514;-77
2024/01/13 05:28:04;;;;;;;7.18;4.75;;;;;;;;;;10453337;28;20461;-77
2024/01/13 05:33:08;;;;;;;9.57;5.20;;;;;;;;;;10453793;28;20037;-77
2024/01/13 05:38:11;;;;;;;7.93;5.00;;;;;;;;;;10450345;28;20042;-77
2024/01/13 05:43:16;;;;;;;13.48;8.38;;;;;;;;;;10459857;28;20055;-77
2024/01/13 05:48:19;;;;;;;12.70;7.82;;;;;;;;;;10453634;28;20488;-77
2024/01/13 05:53:23;;;;;;;7.68;5.50;;;;;;;;;;10439180;28;20482;-77
2024/01/13 05:58:27;;;;;;;9.95;6.18;;;;;;;;;;10430958;28;20079;-77
2024/01/13 06:03:32;;;;;;;8.35;5.00;;;;;;;;;;10450281;28;20043;-77
2024/01/13 06:08:36;;;;;;;10.23;6.55;;;;;;;;;;10459750;28;20049;-77
2024/01/13 06:13:41;;;;;;;12.55;7.75;;;;;;;;;;10454417;28;20059;-77
2024/01/13 06:18:44;;;;;;;13.95;7.38;;;;;;;;;;10456228;28;20361;-77
2024/01/13 06:23:47;;;;;;;9.20;5.07;;;;;;;;;;10438506;28;20113;-77
2024/01/13 06:28:52;;;;;;;7.82;5.13;;;;;;;;;;10447056;28;20044;-76
2024/01/13 06:33:56;;;;;;;7.00;4.20;;;;;;;;;;10424214;28;20049;-76
2024/01/13 06:38:59;;;;;;;10.70;7.15;;;;;;;;;;10447585;28;20048;-77
2024/01/13 06:44:04;;;;;;;16.85;10.52;;;;;;;;;;10459042;28;20037;-77
2024/01/13 06:49:07;;;;;;;15.75;9.18;;;;;;;;;;10428245;28;20074;-77
2024/01/13 06:54:11;;;;;;;13.93;8.75;;;;;;;;;;10459509;28;20219;-76
2024/01/13 06:59:15;;;;;;;12.35;7.43;;;;;;;;;;10457068;28;20041;-77
2024/01/13 07:04:19;;;;;;;10.10;6.53;;;;;;;;;;10437586;28;21475;-77
2024/01/13 07:09:22;;;;;;;13.05;8.05;;;;;;;;;;10432016;28;20436;-76
2024/01/13 07:14:27;;;;;;;10.23;6.90;;;;;;;;;;10448591;28;20063;-76
2024/01/13 07:19:30;;;;;;;16.88;9.52;;;;;;;;;;10452276;28;20517;-77
2024/01/13 07:24:34;;;;;;;13.93;8.45;;;;;;;;;;10444616;28;20084;-77
2024/01/13 07:29:39;;;;;;;11.13;7.00;;;;;;;;;;10448351;28;20037;-76
2024/01/13 07:34:46;;;;;;;9.80;5.78;;;;;;;;;;10455603;28;20685;-77
2024/01/13 07:39:50;;;;;;;11.10;6.22;;;;;;;;;;10422448;28;20128;-77
2024/01/13 07:44:55;;;;;;;12.65;8.60;;;;;;;;;;10442305;28;20124;-77
2024/01/13 07:49:58;;;;;;;17.10;10.68;;;;;;;;;;10449549;28;20040;-77
2024/01/13 07:55:02;;;;;;;22.17;12.50;;;;;;;;;;10445409;28;20124;-77
2024/01/13 08:00:09;;;;;;;15.77;9.43;;;;;;;;;;10428398;28;20049;-77
2024/01/13 08:05:15;;;;;;;18.73;12.00;;;;;;;;;;10441572;28;20045;-77
2024/01/13 08:10:19;;;;;;;20.20;12.00;;;;;;;;;;10442917;28;20131;-77
2024/01/13 08:15:23;;;;;;;19.85;11.65;;;;;;;;;;10431018;28;20059;-77
2024/01/13 08:20:27;;;;;;;11.98;8.70;;;;;;;;;;10432036;28;20492;-77
2024/01/13 08:25:30;;;;;;;13.88;8.43;;;;;;;;;;10460911;28;20044;-77
2024/01/13 08:30:35;;;;;;;16.98;10.55;;;;;;;;;;10457194;28;20087;-77
2024/01/13 08:35:38;;;;;;;17.75;11.40;;;;;;;;;;10450073;28;20528;-77
2024/01/13 08:40:42;;;;;;;15.77;9.98;;;;;;;;;;10428444;28;20041;-77
2024/01/13 08:45:46;;;;;;;14.77;9.82;;;;;;;;;;10425602;28;20045;-77
2024/01/13 08:50:50;;;;;;;20.27;13.20;;;;;;;;;;10436988;28;20075;-77
2024/01/13 08:55:53;;;;;;;17.15;11.70;;;;;;;;;;10469865;28;20055;-77
2024/01/13 09:00:57;;;;;;;20.70;12.30;;;;;;;;;;10442680;28;20051;-77
2024/01/13 09:06:01;;;;;;;19.20;13.07;;;;;;;;;;10457724;28;20065;-77
2024/01/13 09:11:04;;;;;;;17.98;11.95;;;;;;;;;;10431791;28;20122;-77
2024/01/13 09:16:09;;;;;;;17.25;10.70;;;;;;;;;;10424207;28;20049;-77
2024/01/13 09:21:13;;;;;;;13.32;9.18;;;;;;;;;;10448763;28;20139;-77
2024/01/13 09:26:20;;;;;;;14.00;9.55;;;;;;;;;;10458041;28;20045;-77
2024/01/13 09:31:25;;;;;;;13.50;9.05;;;;;;;;;;10453190;28;20044;-76
2024/01/13 09:36:33;;;;;;;10.93;7.60;;;;;;;;;;10443788;28;20045;-76
2024/01/13 09:41:37;;;;;;;13.52;9.68;;;;;;;;;;10447310;28;20649;-77
2024/01/13 09:46:43;;;;;;;12.30;9.20;;;;;;;;;;10447549;28;20490;-77
2024/01/13 09:51:47;;;;;;;14.37;9.80;;;;;;;;;;10451303;28;20808;-77
2024/01/13 09:56:51;;;;;;;10.52;7.70;;;;;;;;;;10446588;28;20103;-77
2024/01/13 10:01:56;;;;;;;9.98;7.50;;;;;;;;;;10448728;28;20540;-77
2024/01/13 10:06:59;;;;;;;10.60;7.57;;;;;;;;;;10443341;28;20449;-77
2024/01/13 10:12:06;;;;;;;9.55;6.80;;;;;;;;;;10448961;28;20068;-77
2024/01/13 10:17:11;;;;;;;11.75;8.45;;;;;;;;;;10449601;28;20510;-77
2024/01/13 10:22:15;;;;;;;8.47;6.87;;;;;;;;;;10429879;28;20117;-77
2024/01/13 10:27:21;;;;;;;7.47;6.10;;;;;;;;;;10447892;28;20118;-77
2024/01/13 10:32:27;;;;;;;10.97;7.20;;;;;;;;;;10451560;28;20393;-77
2024/01/13 10:37:31;;;;;;;8.77;6.25;;;;;;;;;;10431414;28;20303;-77
2024/01/13 10:42:37;;;;;;;7.95;6.07;;;;;;;;;;10447592;28;20051;-77
2024/01/13 10:47:46;;;;;;;12.37;8.33;;;;;;;;;;10440534;28;20750;-77
2024/01/13 10:52:58;;;;;;;12.50;8.13;;;;;;;;;;10452835;28;20279;-77
2024/01/13 10:58:03;;;;;;;11.55;7.93;;;;;;;;;;10429294;28;20053;-77
2024/01/13 11:03:08;;;;;;;9.80;6.70;;;;;;;;;;10436304;28;20051;-76
2024/01/13 11:08:12;;;;;;;13.18;8.82;;;;;;;;;;10461273;22;20423;-77
2024/01/13 11:13:19;;;;;;;12.00;7.53;;;;;;;;;;10460882;28;20045;-76
2024/01/13 11:18:24;;;;;;;12.75;8.75;;;;;;;;;;10467239;28;20049;-76
2024/01/13 11:23:27;;;;;;;14.73;9.73;;;;;;;;;;10470816;28;20098;-76
2024/01/13 11:28:46;;;;;;;15.85;10.07;;;;;;;;;;10463588;28;20094;-76
2024/01/13 11:33:51;;;;;;;12.30;7.38;;;;;;;;;;10443015;28;20037;-76
2024/01/13 11:38:58;;;;;;;10.75;7.00;;;;;;;;;;10470318;28;20053;-76
2024/01/13 11:44:02;;;;;;;15.30;9.68;;;;;;;;;;10472392;28;20052;-76
2024/01/13 11:49:07;;;;;;;27.80;14.65;;;;;;;;;;10456562;28;20049;-76
2024/01/13 11:54:11;;;;;;;15.63;9.07;;;;;;;;;;10459334;28;20750;-76
2024/01/13 11:59:16;;;;;;;16.00;10.25;;;;;;;;;;10463705;28;20055;-76
2024/01/13 12:04:21;;;;;;;13.00;8.07;;;;;;;;;;10477278;28;20045;-76
2024/01/13 12:09:26;;;;;;;18.10;10.95;;;;;;;;;;10465606;28;20076;-76
2024/01/13 12:14:32;;;;;;;19.38;11.48;;;;;;;;;;10463949;28;20536;-76
2024/01/13 12:19:38;;;;;;;;;;;;;;;;;;10449196;28;20453;-76
2024/01/13 12:24:42;;;;;;;17.40;9.90;;;;;;;;;;10447098;28;20116;-76
2024/01/13 12:29:45;;;;;;;18.90;11.68;;;;;;;;;;10476046;28;20037;-76
2024/01/13 12:34:50;;;;;;;15.85;9.60;;;;;;;;;;10487459;28;20646;-76
2024/01/13 12:39:53;;;;;;;17.08;10.68;;;;;;;;;;10474153;28;20079;-76
2024/01/13 12:44:56;;;;;;;24.35;13.20;;;;;;;;;;10475352;28;20405;-76
2024/01/13 12:50:09;;;;;;;20.02;10.43;;;;;;;;;;10460004;28;20405;-76
2024/01/13 12:55:12;;;;;;;18.50;11.45;;;;;;;;;;10480694;28;20648;-76
2024/01/13 13:00:19;;;;;;;16.03;10.27;;;;;;;;;;10476464;28;20032;-76
2024/01/13 13:05:24;;;;;;;25.45;14.75;;;;;;;;;;10474431;28;20098;-76
2024/01/13 13:10:27;;;;;;;16.88;11.20;;;;;;;;;;10479596;28;20147;-76
2024/01/13 13:15:31;;;;;;;13.82;9.10;;;;;;;;;;10457472;28;20045;-76
2024/01/13 13:20:36;;;;;;;15.65;10.27;;;;;;;;;;10475792;28;20052;-76
2024/01/13 13:25:39;;;;;;;15.77;8.80;;;;;;;;;;10452909;28;20072;-76
2024/01/13 13:30:43;;;;;;;15.60;9.55;;;;;;;;;;10478664;28;20127;-76
2024/01/13 13:35:49;;;;;;;18.90;10.52;;;;;;;;;;10472266;28;20037;-76
2024/01/13 13:40:53;;;;;;;17.25;10.25;;;;;;;;;;10467019;28;20581;-76
2024/01/13 13:45:56;;;;;;;14.68;9.65;;;;;;;;;;10472961;28;20111;-76
2024/01/13 13:51:01;;;;;;;21.30;13.05;;;;;;;;;;10481264;28;20041;-76
2024/01/13 13:56:06;;;;;;;17.13;9.85;;;;;;;;;;10474468;28;20051;-77
2024/01/13 14:01:12;;;;;;;17.33;9.30;;;;;;;;;;10454881;28;20408;-76
2024/01/13 14:06:17;;;;;;;17.48;10.55;;;;;;;;;;10454082;28;20037;-76
2024/01/13 14:11:21;;;;;;;15.00;9.93;;;;;;;;;;10451931;28;20116;-76
2024/01/13 14:16:25;;;;;;;14.48;9.93;;;;;;;;;;10466799;28;20040;-76
2024/01/13 14:21:29;;;;;;;17.08;9.88;;;;;;;;;;10467288;28;20036;-77
2024/01/13 14:26:33;;;;;;;14.63;8.82;;;;;;;;;;10454678;28;20112;-76
2024/01/13 14:31:36;;;;;;;16.33;10.95;;;;;;;;;;10467015;28;20045;-76
2024/01/13 14:36:41;;;;;;;17.92;11.38;;;;;;;;;;10472337;28;20041;-76
2024/01/13 14:41:45;;;;;;;13.60;10.07;;;;;;;;;;10472801;28;20049;-76
2024/01/13 14:46:48;;;;;;;17.70;10.10;;;;;;;;;;10473818;28;20046;-78
2024/01/13 14:51:53;;;;;;;16.30;10.23;;;;;;;;;;10458292;28;20071;-76
2024/01/13 14:56:57;;;;;;;18.77;12.30;;;;;;;;;;10473074;28;20039;-77
2024/01/13 15:02:00;;;;;;;15.15;10.30;;;;;;;;;;10475025;28;20075;-76
2024/01/13 15:07:05;;;;;;;15.65;11.68;;;;;;;;;;10453081;28;20040;-76
2024/01/13 15:12:10;;;;;;;17.88;12.40;;;;;;;;;;10469484;28;20153;-76
2024/01/13 15:17:13;;;;;;;16.10;10.93;;;;;;;;;;10467084;28;20037;-76
2024/01/13 15:22:18;;;;;;;20.55;12.95;;;;;;;;;;10448450;28;20421;-76
2024/01/13 15:27:21;;;;;;;19.27;13.13;;;;;;;;;;10446268;28;20135;-76
2024/01/13 15:32:25;;;;;;;18.52;12.23;;;;;;;;;;10472398;28;20131;-76
2024/01/13 15:37:29;;;;;;;17.75;11.82;;;;;;;;;;10470921;28;20501;-76
2024/01/13 15:42:33;;;;;;;23.20;14.65;;;;;;;;;;10452312;28;20037;-76
2024/01/13 15:47:36;;;;;;;23.45;14.13;;;;;;;;;;10473723;28;20043;-76
2024/01/13 15:52:41;;;;;;;19.00;12.88;;;;;;;;;;10478463;28;20521;-76
2024/01/13 15:57:45;;;;;;;21.13;14.00;;;;;;;;;;10481640;28;20041;-75
2024/01/13 16:02:48;;;;;;;26.33;15.88;;;;;;;;;;10484261;28;20071;-76
2024/01/13 16:07:53;;;;;;;27.30;16.05;;;;;;;;;;10484862;28;20130;-76
2024/01/13 16:12:57;;;;;;;24.63;14.85;;;;;;;;;;10463082;28;20040;-76
2024/01/13 16:18:00;;;;;;;24.33;14.45;;;;;;;;;;10479086;28;20045;-76
2024/01/13 16:23:06;;;;;;;26.85;16.35;;;;;;;;;;10484624;28;20044;-76
2024/01/13 16:28:09;;;;;;;28.58;15.60;;;;;;;;;;10491560;28;20125;-76
2024/01/13 16:33:13;;;;;;;25.60;15.05;;;;;;;;;;10477069;28;20049;-76
2024/01/13 16:38:17;;;;;;;25.52;15.93;;;;;;;;;;10473253;28;20048;-76
2024/01/13 16:43:21;;;;;;;23.40;15.02;;;;;;;;;;10482043;28;20045;-76
2024/01/13 16:48:24;;;;;;;27.10;16.17;;;;;;;;;;10473238;28;20098;-76
2024/01/13 16:53:29;;;;;;;25.58;15.48;;;;;;;;;;10476430;28;20045;-76
2024/01/13 16:58:32;;;;;;;28.98;16.13;;;;;;;;;;10458763;28;20046;-76
2024/01/13 17:03:36;;;;;;;29.65;16.38;;;;;;;;;;10467496;28;20477;-76
2024/01/13 17:08:43;;;;;;;27.48;15.45;;;;;;;;;;10514841;22;20168;-76
2024/01/13 17:13:49;;;;;;;26.27;15.18;;;;;;;;;;10556820;28;20085;-75
2024/01/13 17:18:53;;;;;;;26.05;16.52;;;;;;;;;;10537777;28;20048;-76
2024/01/13 17:24:01;;;;;;;28.20;17.17;;;;;;;;;;10540376;28;20533;-76
2024/01/13 17:29:05;;;;;;;28.05;16.33;;;;;;;;;;10551028;28;20044;-76
2024/01/13 17:34:12;;;;;;;30.08;18.08;;;;;;;;;;10542332;28;20134;-76
2024/01/13 17:39:21;;;;;;;28.77;18.08;;;;;;;;;;10550771;28;20044;-76
2024/01/13 17:44:27;;;;;;;28.63;16.05;;;;;;;;;;10557588;28;20057;-75
2024/01/13 17:49:31;;;;;;;27.73;16.80;;;;;;;;;;10557394;28;20098;-76
2024/01/13 17:54:36;;;;;;;24.25;15.07;;;;;;;;;;10542691;28;20055;-76
2024/01/13 17:59:39;;;;;;;27.85;16.48;;;;;;;;;;10539665;28;20078;-76
2024/01/13 18:04:46;;;;;;;21.75;12.88;;;;;;;;;;10550862;28;20044;-76
2024/01/13 18:09:51;;;;;;;16.35;11.00;;;;;;;;;;10556107;28;20071;-76
2024/01/13 18:14:55;;;;;;;18.77;11.60;;;;;;;;;;10552076;28;20090;-76
2024/01/13 18:20:01;;;;;;;17.75;11.38;;;;;;;;;;10557086;28;20048;-76
2024/01/13 18:25:12;;;;;;;15.00;8.40;;;;;;;;;;10549125;28;20055;-76
2024/01/13 18:30:16;;;;;;;13.20;8.75;;;;;;;;;;10550112;28;20067;-76
2024/01/13 18:35:20;;;;;;;16.40;9.05;;;;;;;;;;10552507;28;20039;-76
2024/01/13 18:40:29;;;;;;;15.88;10.77;;;;;;;;;;10556253;28;20032;-76
2024/01/13 18:45:32;;;;;;;23.42;14.10;;;;;;;;;;10556769;28;20491;-76
2024/01/13 18:50:36;;;;;;;21.58;13.00;;;;;;;;;;10553914;28;20044;-76
2024/01/13 18:55:44;;;;;;;31.90;17.48;;;;;;;;;;10539785;28;20139;-76
2024/01/13 19:00:50;;;;;;;26.77;15.20;;;;;;;;;;10537858;28;20067;-76
2024/01/13 19:05:54;;;;;;;30.63;16.60;;;;;;;;;;10554722;28;20067;-76
2024/01/13 19:10:58;;;;;;;28.65;16.75;;;;;;;;;;10552624;28;20067;-76
2024/01/13 19:16:02;;;;;;;19.38;12.90;;;;;;;;;;10535170;28;20127;-76
2024/01/13 19:21:05;;;;;;;23.95;13.13;;;;;;;;;;10547574;28;20035;-76
2024/01/13 19:26:11;;;;;;;23.58;14.40;;;;;;;;;;10550962;28;20040;-76
2024/01/13 19:31:14;;;;;;;18.33;10.45;;;;;;;;;;10539981;28;20063;-76
2024/01/13 19:36:19;;;;;;;24.77;13.55;;;;;;;;;;10544899;27;20043;-75
2024/01/13 19:41:24;;;;;;;23.17;13.10;;;;;;;;;;10542510;28;20063;-76
2024/01/13 19:46:27;;;;;;;22.20;13.23;;;;;;;;;;10553980;28;20132;-76
2024/01/13 19:51:30;;;;;;;25.75;14.93;;;;;;;;;;10557867;28;20040;-76
2024/01/13 19:56:35;;;;;;;21.90;13.68;;;;;;;;;;10554968;28;20034;-76
2024/01/13 20:01:38;;;;;;;22.70;13.63;;;;;;;;;;10547960;28;20032;-75
2024/01/13 20:06:42;;;;;;;23.00;14.38;;;;;;;;;;10558413;28;20044;-76
2024/01/13 20:11:47;;;;;;;25.85;15.85;;;;;;;;;;10551350;28;20111;-76
2024/01/13 20:16:50;;;;;;;23.90;14.15;;;;;;;;;;10549012;28;20039;-75
2024/01/13 20:21:55;;;;;;;26.33;15.30;;;;;;;;;;10551961;28;20040;-76
2024/01/13 20:26:59;;;;;;;25.90;15.32;;;;;;;;;;10551222;28;20117;-76
2024/01/13 20:32:02;;;;;;;22.77;14.25;;;;;;;;;;10548582;28;20052;-76
2024/01/13 20:37:06;;;;;;;25.20;14.68;;;;;;;;;;10533189;28;20044;-76
2024/01/13 20:42:10;;;;;;;24.05;14.93;;;;;;;;;;10559918;28;20046;-76
2024/01/13 20:47:15;;;;;;;18.63;11.50;;;;;;;;;;10558482;28;20555;-75
2024/01/13 20:52:18;;;;;;;25.55;14.95;;;;;;;;;;10564350;28;20448;-76
2024/01/13 20:57:34;;;;;;;24.63;14.63;;;;;;;;;;10559623;28;20135;-76
2024/01/13 21:02:37;;;;;;;19.27;11.93;;;;;;;;;;10556962;28;20051;-76
2024/01/13 21:07:41;;;;;;;24.92;14.13;;;;;;;;;;10564359;28;20142;-76
2024/01/13 21:12:50;;;;;;;20.60;13.70;;;;;;;;;;10561065;28;20055;-76
2024/01/13 21:17:56;;;;;;;25.00;14.07;;;;;;;;;;10555623;28;20059;-76
2024/01/13 21:22:59;;;;;;;20.43;12.40;;;;;;;;;;10559485;28;20040;-76
2024/01/13 21:28:04;;;;;;;27.23;15.25;;;;;;;;;;10556066;28;20062;-76
2024/01/13 21:33:08;;;;;;;22.75;14.48;;;;;;;;;;10554143;28;20051;-76
2024/01/13 21:38:11;;;;;;;25.88;14.52;;;;;;;;;;10552292;28;20393;-76
2024/01/13 21:43:16;;;;;;;22.33;13.60;;;;;;;;;;10552491;28;20388;-76
2024/01/13 21:48:19;;;;;;;26.17;14.68;;;;;;;;;;10556556;28;20507;-76
2024/01/13 21:53:24;;;;;;;20.95;13.40;;;;;;;;;;10546876;28;20059;-76
2024/01/13 21:58:28;;;;;;;22.95;13.45;;;;;;;;;;10564106;28;20042;-76
2024/01/13 22:03:32;;;;;;;25.55;14.48;;;;;;;;;;10558570;28;20397;-76
2024/01/13 22:08:36;;;;;;;26.00;14.93;;;;;;;;;;10558984;28;20061;-76
2024/01/13 22:13:41;;;;;;;21.60;12.20;;;;;;;;;;10553821;28;20661;-77
2024/01/13 22:18:44;;;;;;;29.70;16.75;;;;;;;;;;10552629;28;20730;-76
2024/01/13 22:23:48;;;;;;;28.98;15.38;;;;;;;;;;10556214;28;20059;-76
2024/01/13 22:28:52;;;;;;;27.08;15.25;;;;;;;;;;10567933;28;20048;-76
2024/01/13 22:33:56;;;;;;;30.77;15.32;;;;;;;;;;10554861;28;20058;-76
2024/01/13 22:38:59;;;;;;;30.23;13.45;;;;;;;;;;10558305;28;20500;-76
2024/01/13 22:44:04;;;;;;;25.25;13.80;;;;;;;;;;10551059;28;20516;-76
2024/01/13 22:49:07;;;;;;;25.48;15.00;;;;;;;;;;10540764;28;20039;-76
2024/01/13 22:54:10;;;;;;;25.25;14.70;;;;;;;;;;10554260;28;20506;-76
2024/01/13 22:59:15;;;;;;;20.20;11.43;;;;;;;;;;10553718;28;20154;-76
2024/01/13 23:04:19;;;;;;;20.02;12.60;;;;;;;;;;10548914;28;20098;-76
2024/01/13 23:09:22;;;;;;;22.10;11.70;;;;;;;;;;10539937;28;20039;-76
2024/01/13 23:14:29;;;;;;;14.13;7.97;;;;;;;;;;10558859;28;20098;-76
2024/01/13 23:19:32;;;;;;;;;;;;;;;;;;10556798;28;20040;-76
2024/01/13 23:24:35;;;;;;;8.57;5.35;;;;;;;;;;10554899;28;20517;-76
2024/01/13 23:29:41;;;;;;;15.20;8.82;;;;;;;;;;10547534;28;20447;-76
2024/01/13 23:34:44;;;;;;;11.10;7.20;;;;;;;;;;10553867;28;20048;-76
2024/01/13 23:39:51;;;;;;;9.27;6.55;;;;;;;;;;10552873;28;20386;-76
2024/01/13 23:44:57;;;;;;;8.50;5.95;;;;;;;;;;10519036;28;20493;-76
2024/01/13 23:50:01;;;;;;;10.25;6.18;;;;;;;;;;10540077;28;20046;-76
2024/01/13 23:55:06;;;;;;;9.32;5.68;;;;;;;;;;10527744;28;20048;-76
